Time;durP1;ratioP1;P1;durP2;ratioP2;P2;SDS_P1;SDS_P2;PMS_P1;PMS_P2;Temp;Humidity;BMP_temperature;BMP_pressure;BME280_temperature;BME280_humidity;BME280_pressure;Samples;Min_cycle;Max_cycle;Signal;HPM_P1;HPM_P2
2023/10/26 00:00:28;;;;;;;27.90;25.20;;;;;;;9.70;100.00;99560.09;5033348;28;20360;-82
2023/10/26 00:02:54;;;;;;;27.38;24.67;;;;;;;9.63;100.00;99564.25;5033788;28;20127;-83
2023/10/26 00:05:19;;;;;;;26.58;24.08;;;;;;;9.61;100.00;99571.44;5033810;28;20029;-82
2023/10/26 00:07:44;;;;;;;26.10;23.33;;;;;;;9.60;100.00;99581.06;5049180;28;20845;-83
2023/10/26 00:10:11;;;;;;;24.95;22.45;;;;;;;9.57;100.00;99580.53;5033734;28;20076;-82
2023/10/26 00:12:36;;;;;;;26.45;23.80;;;;;;;9.57;100.00;99580.53;5051082;28;20250;-83
2023/10/26 00:15:02;;;;;;;26.08;23.65;;;;;;;9.58;100.00;99583.00;5047977;28;20679;-82
2023/10/26 00:17:27;;;;;;;26.60;24.05;;;;;;;9.57;100.00;99591.84;5050453;28;20037;-82
2023/10/26 00:19:53;;;;;;;25.67;23.27;;;;;;;9.62;100.00;99587.03;5049292;28;20025;-83
2023/10/26 00:22:22;;;;;;;27.83;24.88;;;;;;;9.55;100.00;99587.72;5048587;28;20064;-82
2023/10/26 00:24:48;;;;;;;27.70;24.80;;;;;;;9.54;100.00;99583.44;5047471;28;20016;-82
2023/10/26 00:27:14;;;;;;;27.13;24.35;;;;;;;9.57;100.00;99593.66;5049758;28;20044;-83
2023/10/26 00:29:40;;;;;;;27.05;24.30;;;;;;;9.53;100.00;99593.09;5031861;28;20017;-82
2023/10/26 00:32:06;;;;;;;28.15;24.70;;;;;;;9.55;100.00;99592.97;5048721;28;20025;-82
2023/10/26 00:34:32;;;;;;;26.63;23.90;;;;;;;9.53;100.00;99605.41;5049702;28;20028;-82
2023/10/26 00:36:58;;;;;;;25.70;23.23;;;;;;;9.54;100.00;99596.56;5047567;28;20624;-82
2023/10/26 00:39:23;;;;;;;27.08;23.63;;;;;;;9.55;100.00;99603.47;5051267;28;20115;-83
2023/10/26 00:41:53;;;;;;;26.65;23.88;;;;;;;9.53;100.00;99610.66;5046252;28;20569;-82
2023/10/26 00:44:19;;;;;;;24.65;22.15;;;;;;;9.46;100.00;99614.78;5050003;28;20021;-82
2023/10/26 00:46:45;;;;;;;22.83;20.70;;;;;;;9.48;100.00;99610.22;5036642;28;20490;-82
2023/10/26 00:49:12;;;;;;;23.08;20.70;;;;;;;9.47;100.00;99621.69;5069181;28;20020;-82
2023/10/26 00:51:38;;;;;;;22.67;20.38;;;;;;;9.45;100.00;99621.84;5043678;28;20021;-82
2023/10/26 00:54:05;;;;;;;22.67;20.48;;;;;;;9.43;100.00;99619.34;5050810;28;20027;-82
2023/10/26 00:56:35;;;;;;;21.40;19.40;;;;;;;9.44;100.00;99622.81;5050891;28;20040;-82
2023/10/26 00:59:03;;;;;;;21.33;19.40;;;;;;;9.42;100.00;99622.13;5048877;28;20025;-82
2023/10/26 01:01:30;;;;;;;21.60;19.58;;;;;;;9.47;100.00;99624.31;5047189;28;20045;-81
2023/10/26 01:03:56;;;;;;;21.83;19.70;;;;;;;9.46;100.00;99625.28;5039483;28;20051;-81
2023/10/26 01:06:22;;;;;;;22.00;19.90;;;;;;;9.45;100.00;99623.63;5049331;28;20028;-81
2023/10/26 01:08:47;;;;;;;23.52;21.10;;;;;;;9.46;100.00;99628.75;5050471;28;20029;-81
2023/10/26 01:11:13;;;;;;;22.67;20.48;;;;;;;9.43;100.00;99619.34;5049819;28;20027;-81
2023/10/26 01:13:39;;;;;;;22.90;20.67;;;;;;;9.44;100.00;99633.31;5032481;28;20127;-81
2023/10/26 01:16:05;;;;;;;22.63;20.33;;;;;;;9.42;100.00;99627.38;5049489;28;20024;-81
2023/10/26 01:18:33;;;;;;;23.52;21.10;;;;;;;9.40;100.00;99632.75;5031138;28;20051;-81
2023/10/26 01:21:01;;;;;;;23.77;21.48;;;;;;;9.43;100.00;99616.72;5047360;28;20021;-81
2023/10/26 01:23:26;;;;;;;23.75;21.42;;;;;;;9.40;100.00;99619.63;5040591;28;20032;-81
2023/10/26 01:25:55;;;;;;;24.40;21.65;;;;;;;9.37;100.00;99619.91;5049095;28;20036;-81
2023/10/26 01:28:21;;;;;;;24.55;22.13;;;;;;;9.35;100.00;99616.59;5030622;28;20029;-81
2023/10/26 01:30:47;;;;;;;25.65;21.77;;;;;;;9.34;100.00;99625.41;5049400;28;20033;-81
2023/10/26 01:33:12;;;;;;;23.55;21.35;;;;;;;9.30;100.00;99626.66;5047496;28;20031;-81
2023/10/26 01:35:41;;;;;;;23.52;21.10;;;;;;;9.24;100.00;99632.47;5031099;28;20033;-81
2023/10/26 01:38:06;;;;;;;24.08;21.70;;;;;;;9.22;100.00;99623.06;5025577;28;20422;-81
2023/10/26 01:40:32;;;;;;;23.08;20.98;;;;;;;9.16;100.00;99623.56;5029498;28;20471;-81
2023/10/26 01:42:57;;;;;;;24.45;21.98;;;;;;;9.06;100.00;99623.56;5046779;28;20461;-81
2023/10/26 01:45:23;;;;;;;24.80;22.20;;;;;;;9.06;100.00;99626.19;5047524;28;20025;-81
2023/10/26 01:47:48;;;;;;;23.00;20.67;;;;;;;8.99;100.00;99631.13;5047698;28;20031;-81
2023/10/26 01:50:13;;;;;;;23.25;20.88;;;;;;;9.03;100.00;99631.69;5048303;28;20056;-81
2023/10/26 01:52:39;;;;;;;23.33;21.08;;;;;;;9.04;100.00;99628.09;5047812;28;20040;-83
2023/10/26 01:55:04;;;;;;;24.10;21.65;;;;;;;9.03;100.00;99629.06;5045299;28;20456;-83
2023/10/26 01:57:30;;;;;;;23.58;21.00;;;;;;;9.02;100.00;99632.66;5035074;28;20032;-82
2023/10/26 01:59:56;;;;;;;24.10;21.58;;;;;;;9.06;100.00;99629.63;5048663;28;20442;-81
2023/10/26 02:02:21;;;;;;;26.85;22.25;;;;;;;9.05;100.00;99633.22;5047025;28;20080;-81
2023/10/26 02:04:47;;;;;;;24.70;22.00;;;;;;;9.01;100.00;99629.19;5048691;28;20028;-81
2023/10/26 02:07:12;;;;;;;25.02;22.48;;;;;;;9.00;100.00;99630.16;5047571;28;20036;-81
2023/10/26 02:09:37;;;;;;;24.73;21.63;;;;;;;8.94;100.00;99624.63;5047472;28;20527;-81
2023/10/26 02:12:03;;;;;;;24.55;22.10;;;;;;;8.91;100.00;99619.66;5047414;28;20036;-81
2023/10/26 02:14:28;;;;;;;24.52;21.83;;;;;;;8.84;100.00;99621.16;5028694;28;20020;-81
2023/10/26 02:16:54;;;;;;;22.88;20.48;;;;;;;8.84;100.00;99610.66;5047553;28;20108;-81
2023/10/26 02:19:19;;;;;;;22.58;20.30;;;;;;;8.78;100.00;99615.44;5047614;28;20203;-82
2023/10/26 02:21:44;;;;;;;23.25;20.73;;;;;;;8.79;100.00;99624.13;5047221;28;20107;-82
2023/10/26 02:24:10;;;;;;;22.67;20.50;;;;;;;8.71;100.00;99619.56;5048335;28;20102;-82
2023/10/26 02:26:35;;;;;;;22.92;20.73;;;;;;;8.67;100.00;99622.56;5048130;28;20033;-81
2023/10/26 02:29:00;;;;;;;23.63;21.08;;;;;;;8.65;100.00;99624.50;5047335;28;20032;-82
2023/10/26 02:31:25;;;;;;;22.02;19.83;;;;;;;8.62;100.00;99609.88;5045864;28;20028;-82
2023/10/26 02:33:51;;;;;;;23.23;20.92;;;;;;;8.58;100.00;99605.84;5047673;28;20048;-82
2023/10/26 02:36:16;;;;;;;25.27;21.77;;;;;;;8.59;100.00;99604.06;5031288;28;20038;-82
2023/10/26 02:38:42;;;;;;;23.65;21.27;;;;;;;8.56;100.00;99604.31;5029067;28;20021;-82
2023/10/26 02:41:07;;;;;;;22.70;20.30;;;;;;;8.51;100.00;99612.59;5048920;28;20391;-82
2023/10/26 02:43:33;;;;;;;23.35;20.98;;;;;;;8.49;100.00;99611.88;5045946;28;20029;-82
2023/10/26 02:46:06;;;;;;;23.40;20.90;;;;;;;8.46;100.00;99614.78;5035705;28;20108;-82
2023/10/26 02:48:34;;;;;;;;;;;;;;;8.59;100.00;99614.53;5041006;28;20053;-82
2023/10/26 02:51:00;;;;;;;24.35;20.52;;;;;;;8.43;100.00;99609.78;5046310;28;19913;-82
2023/10/26 02:53:26;;;;;;;23.63;21.23;;;;;;;8.39;100.00;99614.44;5047935;28;20044;-81
2023/10/26 02:55:52;;;;;;;22.73;20.42;;;;;;;8.33;100.00;99609.72;5035375;28;20029;-82
2023/10/26 02:58:17;;;;;;;22.75;20.30;;;;;;;8.31;100.00;99605.53;5048094;28;20021;-82
2023/10/26 03:00:43;;;;;;;22.65;20.35;;;;;;;8.25;100.00;99617.38;5047758;28;20017;-82
2023/10/26 03:03:08;;;;;;;23.58;21.08;;;;;;;8.23;100.00;99602.72;5038577;28;20048;-81
2023/10/26 03:05:33;;;;;;;23.92;21.42;;;;;;;8.23;100.00;99605.34;5043689;28;20116;-82
2023/10/26 03:08:02;;;;;;;24.88;21.05;;;;;;;8.16;100.00;99603.25;5042079;28;20025;-82
2023/10/26 03:10:28;;;;;;;23.52;21.00;;;;;;;8.13;100.00;99603.50;5040561;28;20174;-82
2023/10/26 03:12:53;;;;;;;24.17;21.60;;;;;;;8.09;100.00;99612.59;5034401;28;20029;-82
2023/10/26 03:15:19;;;;;;;23.38;20.88;;;;;;;8.10;100.00;99613.41;5048082;28;20037;-80
2023/10/26 03:17:44;;;;;;;24.40;20.92;;;;;;;8.05;100.00;99619.03;5044924;28;20459;-83
2023/10/26 03:20:10;;;;;;;26.50;21.33;;;;;;;7.99;100.00;99616.91;5047303;28;20032;-81
2023/10/26 03:22:36;;;;;;;24.88;21.20;;;;;;;7.97;100.00;99618.81;5046836;28;20025;-81
2023/10/26 03:25:01;;;;;;;23.15;20.73;;;;;;;7.91;100.00;99616.72;5048222;28;20074;-81
2023/10/26 03:27:26;;;;;;;23.17;20.88;;;;;;;7.95;100.00;99619.91;5033648;28;20020;-81
2023/10/26 03:29:54;;;;;;;26.70;22.50;;;;;;;7.87;100.00;99617.94;5050362;28;20400;-81
2023/10/26 03:32:20;;;;;;;24.35;21.85;;;;;;;7.85;100.00;99615.44;5049881;28;20079;-81
2023/10/26 03:34:45;;;;;;;26.33;22.80;;;;;;;7.84;100.00;99618.19;5051435;28;20036;-81
2023/10/26 03:37:10;;;;;;;27.83;24.80;;;;;;;7.86;100.00;99613.66;5049085;28;20029;-82
2023/10/26 03:39:36;;;;;;;25.75;23.13;;;;;;;7.90;100.00;99609.00;5049045;28;20087;-82
2023/10/26 03:42:02;;;;;;;32.20;26.15;;;;;;;7.87;100.00;99596.97;5046260;28;20021;-82
2023/10/26 03:44:28;;;;;;;30.45;25.80;;;;;;;7.87;100.00;99602.22;5052554;28;20109;-81
2023/10/26 03:46:53;;;;;;;36.80;29.27;;;;;;;7.93;100.00;99606.13;5048222;28;20060;-81
2023/10/26 03:49:20;;;;;;;72.78;34.33;;;;;;;7.95;100.00;99614.66;5024227;28;20136;-82
2023/10/26 03:51:49;;;;;;;69.50;34.30;;;;;;;7.96;100.00;99598.81;5032862;28;20021;-81
2023/10/26 03:54:14;;;;;;;46.58;33.58;;;;;;;8.00;100.00;99586.31;5049279;28;20024;-82
2023/10/26 03:56:39;;;;;;;54.78;33.08;;;;;;;8.00;100.00;99587.13;5034123;28;20028;-81
2023/10/26 03:59:05;;;;;;;44.45;32.17;;;;;;;8.03;100.00;99581.66;5050447;28;20544;-82
2023/10/26 04:01:30;;;;;;;66.60;33.35;;;;;;;8.00;100.00;99581.91;5049617;28;20041;-81
2023/10/26 04:03:55;;;;;;;78.45;34.08;;;;;;;7.99;100.00;99569.75;5050352;28;20033;-82
2023/10/26 04:06:21;;;;;;;46.85;31.40;;;;;;;8.00;100.00;99578.44;5049554;28;20032;-82
2023/10/26 04:08:46;;;;;;;222.70;40.15;;;;;;;8.00;100.00;99579.28;5053545;28;20127;-82
2023/10/26 04:11:17;;;;;;;255.30;41.78;;;;;;;7.97;100.00;99586.56;5046712;28;20028;-82
2023/10/26 04:13:42;;;;;;;413.38;51.08;;;;;;;7.92;100.00;99573.84;5053409;28;20470;-81
2023/10/26 04:16:08;;;;;;;84.28;32.03;;;;;;;7.96;100.00;99566.56;5030559;28;20078;-82
2023/10/26 04:18:33;;;;;;;155.80;34.38;;;;;;;7.93;100.00;99570.28;5050662;28;20027;-82
2023/10/26 04:20:59;;;;;;;334.05;44.40;;;;;;;7.87;100.00;99578.66;5049963;28;20443;-82
2023/10/26 04:23:26;;;;;;;65.75;30.70;;;;;;;7.89;100.00;99583.75;5049256;28;20029;-81
2023/10/26 04:25:51;;;;;;;108.70;32.05;;;;;;;7.87;100.00;99578.66;5048363;28;20121;-81
2023/10/26 04:28:17;;;;;;;47.15;28.75;;;;;;;7.89;100.00;99589.00;5047571;28;20108;-81
2023/10/26 04:30:44;;;;;;;123.05;32.50;;;;;;;7.80;100.00;99585.34;5050625;28;20379;-81
2023/10/26 04:33:09;;;;;;;138.40;33.53;;;;;;;7.74;100.00;99585.88;5047893;28;20025;-81
2023/10/26 04:35:34;;;;;;;139.55;30.55;;;;;;;7.70;100.00;99587.06;5030244;28;20386;-81
2023/10/26 04:38:00;;;;;;;63.17;26.52;;;;;;;7.66;100.00;99580.44;5049684;28;20094;-81
2023/10/26 04:40:25;;;;;;;70.15;27.35;;;;;;;7.67;100.00;99585.53;5048298;28;20029;-81
2023/10/26 04:42:50;;;;;;;182.32;32.35;;;;;;;7.60;100.00;99594.84;5048867;28;20098;-82
2023/10/26 04:45:16;;;;;;;59.85;25.17;;;;;;;7.64;100.00;99590.19;5048881;28;20135;-82
2023/10/26 04:47:42;;;;;;;43.63;23.90;;;;;;;7.65;100.00;99579.59;5037836;28;20025;-82
2023/10/26 04:50:08;;;;;;;47.25;24.75;;;;;;;7.68;100.00;99583.75;5069762;28;20028;-81
2023/10/26 04:52:33;;;;;;;36.92;24.80;;;;;;;7.66;100.00;99578.66;5044578;28;20056;-81
2023/10/26 04:54:58;;;;;;;66.18;25.40;;;;;;;7.67;100.00;99580.31;5049822;28;20057;-81
2023/10/26 04:57:24;;;;;;;83.57;23.63;;;;;;;7.60;100.00;99576.50;5048881;28;20035;-81
2023/10/26 04:59:49;;;;;;;141.18;27.73;;;;;;;7.50;100.00;99579.06;5048051;28;20029;-82
2023/10/26 05:02:14;;;;;;;77.18;24.42;;;;;;;7.42;100.00;99578.84;5013902;28;20064;-81
2023/10/26 05:04:40;;;;;;;44.65;22.10;;;;;;;7.49;100.00;99580.00;5033232;28;20032;-81
2023/10/26 05:07:05;;;;;;;41.25;21.45;;;;;;;7.40;100.00;99586.00;5043593;28;20036;-82
2023/10/26 05:09:30;;;;;;;75.95;22.60;;;;;;;7.31;100.00;99588.53;5049047;28;20052;-81
2023/10/26 05:11:56;;;;;;;74.63;22.33;;;;;;;7.30;100.00;99582.47;5038182;28;20072;-81
2023/10/26 05:14:21;;;;;;;127.60;27.20;;;;;;;7.26;100.00;99580.22;5042212;28;20029;-82
2023/10/26 05:16:46;;;;;;;119.70;24.63;;;;;;;7.22;100.00;99569.19;5048259;28;20033;-82
2023/10/26 05:19:12;;;;;;;105.90;26.15;;;;;;;7.25;100.00;99574.16;5049350;28;20103;-82
2023/10/26 05:21:37;;;;;;;85.50;23.65;;;;;;;7.26;100.00;99581.06;5048605;28;20132;-82
2023/10/26 05:24:03;;;;;;;81.60;25.95;;;;;;;7.27;100.00;99577.50;5048154;28;20025;-82
2023/10/26 05:26:28;;;;;;;115.03;27.23;;;;;;;7.29;100.00;99565.09;5049412;28;20076;-82
2023/10/26 05:28:53;;;;;;;228.40;36.92;;;;;;;7.29;100.00;99565.09;5048487;28;20028;-82
2023/10/26 05:31:19;;;;;;;193.30;34.83;;;;;;;7.30;100.00;99569.38;5027190;28;20033;-82
2023/10/26 05:33:44;;;;;;;89.88;27.40;;;;;;;7.30;100.00;99561.53;5043985;28;20394;-82
2023/10/26 05:36:09;;;;;;;75.13;27.23;;;;;;;7.39;100.00;99559.97;5046770;28;20025;-82
2023/10/26 05:38:35;;;;;;;184.50;35.90;;;;;;;7.32;100.00;99564.03;5045995;28;20029;-82
2023/10/26 05:41:00;;;;;;;49.25;25.10;;;;;;;7.41;100.00;99571.97;5043465;28;20020;-82
2023/10/26 05:43:26;;;;;;;138.32;31.70;;;;;;;7.27;100.00;99569.63;5051145;28;20052;-82
2023/10/26 05:45:52;;;;;;;291.95;38.80;;;;;;;7.20;100.00;99571.06;5039870;28;20419;-81
2023/10/26 05:48:19;;;;;;;208.30;35.63;;;;;;;7.17;100.00;99571.31;5045275;28;20028;-82
2023/10/26 05:50:45;;;;;;;191.50;33.15;;;;;;;7.17;100.00;99569.53;5049486;28;20033;-82
2023/10/26 05:53:10;;;;;;;69.97;24.65;;;;;;;7.17;100.00;99566.06;5048459;28;20032;-82
2023/10/26 05:55:36;;;;;;;63.35;24.13;;;;;;;7.21;100.00;99565.72;5048129;28;20025;-82
2023/10/26 05:58:03;;;;;;;139.73;30.95;;;;;;;7.15;100.00;99558.34;5031596;28;20544;-82
2023/10/26 06:00:28;;;;;;;146.48;32.83;;;;;;;7.17;100.00;99550.38;5030199;28;20391;-82
2023/10/26 06:02:54;;;;;;;60.42;25.88;;;;;;;7.24;100.00;99556.81;5048688;28;20056;-82
2023/10/26 06:05:19;;;;;;;177.40;32.83;;;;;;;7.20;100.00;99550.13;5048903;28;20057;-82
2023/10/26 06:07:45;;;;;;;209.30;34.78;;;;;;;7.14;100.00;99550.63;5049146;28;20027;-82
2023/10/26 06:10:11;;;;;;;260.55;38.60;;;;;;;7.12;100.00;99557.78;5048521;28;20552;-81
2023/10/26 06:12:37;;;;;;;176.32;34.80;;;;;;;7.15;100.00;99554.91;5048164;28;20111;-82
2023/10/26 06:15:04;;;;;;;291.30;39.90;;;;;;;7.15;100.00;99566.19;5047014;28;20078;-83
2023/10/26 06:17:29;;;;;;;90.35;29.75;;;;;;;7.22;100.00;99550.88;5048496;28;20064;-82
2023/10/26 06:19:54;;;;;;;206.13;37.83;;;;;;;7.24;100.00;99559.44;5048969;28;20044;-82
2023/10/26 06:22:20;;;;;;;194.60;39.72;;;;;;;7.26;100.00;99554.91;5030171;28;20114;-82
2023/10/26 06:24:45;;;;;;;228.10;39.15;;;;;;;7.31;100.00;99550.13;5047999;28;20060;-82
2023/10/26 06:27:11;;;;;;;179.15;35.95;;;;;;;7.31;100.00;99547.50;5049124;28;20017;-82
2023/10/26 06:29:36;;;;;;;182.70;36.08;;;;;;;7.37;100.00;99551.41;5048149;28;20036;-82
2023/10/26 06:32:02;;;;;;;90.80;32.70;;;;;;;7.44;100.00;99542.09;5047999;28;20032;-82
2023/10/26 06:34:29;;;;;;;127.72;35.08;;;;;;;7.44;100.00;99542.91;5045915;28;20029;-82
2023/10/26 06:36:55;;;;;;;204.60;39.40;;;;;;;7.44;100.00;99537.69;5032147;28;20056;-83
2023/10/26 06:39:20;;;;;;;124.22;34.83;;;;;;;7.48;100.00;99544.31;5049120;28;20045;-82
2023/10/26 06:41:45;;;;;;;166.43;38.20;;;;;;;7.50;100.00;99557.28;5033008;28;20445;-78
2023/10/26 06:44:11;;;;;;;308.77;47.50;;;;;;;7.49;100.00;99561.69;5047403;28;20486;-80
2023/10/26 06:46:36;;;;;;;107.70;36.58;;;;;;;7.55;100.00;99560.34;5046295;28;20435;-79
2023/10/26 06:49:01;;;;;;;224.15;42.60;;;;;;;7.52;100.00;99548.34;5047650;28;20071;-82
2023/10/26 06:51:28;;;;;;;109.20;34.78;;;;;;;7.56;100.00;99546.31;5047482;28;20017;-83
2023/10/26 06:53:54;;;;;;;105.72;34.35;;;;;;;7.58;100.00;99544.41;5046939;28;20128;-83
2023/10/26 06:56:19;;;;;;;103.07;32.78;;;;;;;7.62;100.00;99545.84;5047132;28;20108;-83
2023/10/26 06:58:46;;;;;;;82.35;32.95;;;;;;;7.62;100.00;99545.84;5051059;28;20041;-83
2023/10/26 07:01:11;;;;;;;88.70;33.20;;;;;;;7.67;100.00;99556.75;5049997;28;20505;-82
2023/10/26 07:03:37;;;;;;;162.00;35.20;;;;;;;7.64;100.00;99545.69;5050840;28;20048;-82
2023/10/26 07:06:03;;;;;;;77.88;32.03;;;;;;;7.68;100.00;99532.22;5052897;28;20021;-80
2023/10/26 07:08:28;;;;;;;81.78;32.75;;;;;;;7.73;100.00;99534.47;5052452;28;20032;-83
2023/10/26 07:10:54;;;;;;;55.22;28.73;;;;;;;7.77;100.00;99533.25;5037831;28;20029;-83
2023/10/26 07:13:20;;;;;;;144.50;34.70;;;;;;;7.71;100.00;99531.16;5049938;28;20066;-81
2023/10/26 07:15:47;;;;;;;94.32;32.88;;;;;;;7.74;100.00;99530.88;5034786;28;20398;-82
2023/10/26 07:18:15;;;;;;;119.63;33.50;;;;;;;7.75;100.00;99537.78;5034447;28;20078;-82
2023/10/26 07:20:40;;;;;;;199.98;36.58;;;;;;;7.74;100.00;99549.22;5052733;28;20094;-82
2023/10/26 07:23:06;;;;;;;313.52;44.35;;;;;;;7.70;100.00;99550.44;5053091;28;20680;-81
2023/10/26 07:25:35;;;;;;;144.25;32.85;;;;;;;7.74;100.00;99550.03;5034642;28;20032;-82
2023/10/26 07:28:01;;;;;;;124.93;32.53;;;;;;;7.77;100.00;99541.09;5052831;28;20434;-82
2023/10/26 07:30:41;;;;;;;59.67;28.52;;;;;;;7.83;100.00;99544.03;5052606;28;20053;-83
2023/10/26 07:33:10;;;;;;;60.90;28.23;;;;;;;7.88;100.00;99546.25;5034808;28;20060;-82
2023/10/26 07:35:40;;;;;;;93.57;29.15;;;;;;;7.89;100.00;99547.94;5054268;28;20359;-83
2023/10/26 07:38:21;;;;;;;158.73;35.17;;;;;;;7.92;100.00;99547.66;5049576;28;20070;-83
2023/10/26 07:41:00;;;;;;;69.40;30.17;;;;;;;7.98;100.00;99541.91;5051969;28;20017;-83
2023/10/26 07:43:26;;;;;;;226.48;36.55;;;;;;;7.88;100.00;99535.78;5051397;28;20037;-83
2023/10/26 07:45:52;;;;;;;51.83;25.85;;;;;;;7.96;100.00;99538.59;5052347;28;20300;-83
2023/10/26 07:48:18;;;;;;;173.15;32.08;;;;;;;7.93;100.00;99541.47;5051149;28;20394;-82
2023/10/26 07:50:46;;;;;;;224.57;37.13;;;;;;;7.88;100.00;99550.69;5051175;28;20120;-83
2023/10/26 07:53:15;;;;;;;115.80;29.92;;;;;;;7.95;100.00;99552.66;5051386;28;20021;-83
2023/10/26 07:55:46;;;;;;;207.35;34.80;;;;;;;7.91;100.00;99553.03;5051934;28;20108;-83
2023/10/26 07:58:12;;;;;;;111.93;28.75;;;;;;;7.97;100.00;99555.13;5050861;28;20501;-83
2023/10/26 08:00:37;;;;;;;51.08;27.23;;;;;;;8.03;100.00;99560.72;5051166;28;20033;-83
2023/10/26 08:03:03;;;;;;;44.08;26.67;;;;;;;8.08;100.00;99562.94;5051704;28;20027;-83
2023/10/26 08:05:29;;;;;;;54.92;25.77;;;;;;;8.07;100.00;99567.34;5050688;28;20028;-83
2023/10/26 08:07:54;;;;;;;72.38;27.50;;;;;;;8.11;100.00;99567.94;5066574;28;20249;-83
2023/10/26 08:10:20;;;;;;;53.95;26.42;;;;;;;8.13;100.00;99574.69;5050916;28;20458;-83
2023/10/26 08:12:45;;;;;;;56.53;26.35;;;;;;;8.17;100.00;99573.47;5051215;28;20257;-83
2023/10/26 08:15:10;;;;;;;90.70;28.70;;;;;;;8.12;100.00;99569.59;5033628;28;20029;-83
2023/10/26 08:17:36;;;;;;;42.92;26.02;;;;;;;8.21;100.00;99573.22;5051797;28;20028;-83
2023/10/26 08:20:07;;;;;;;78.15;28.25;;;;;;;8.20;100.00;99571.56;5051004;28;20746;-82
2023/10/26 08:22:39;;;;;;;119.28;31.88;;;;;;;8.15;100.00;99578.00;5033379;28;20037;-83
2023/10/26 08:25:05;;;;;;;43.60;27.90;;;;;;;8.27;100.00;99583.16;5051451;28;20047;-83
2023/10/26 08:27:36;;;;;;;51.50;28.70;;;;;;;8.31;100.00;99585.41;5049991;28;20770;-83
2023/10/26 08:30:03;;;;;;;72.13;30.48;;;;;;;8.34;100.00;99579.09;5050166;28;20028;-83
2023/10/26 08:32:36;;;;;;;49.35;30.08;;;;;;;8.39;100.00;99582.16;5033381;28;20395;-83
2023/10/26 08:35:03;;;;;;;69.18;32.15;;;;;;;8.39;100.00;99582.97;5050806;28;20162;-83
2023/10/26 08:37:33;;;;;;;75.70;32.50;;;;;;;8.35;100.00;99578.13;5051237;28;20115;-83
2023/10/26 08:40:08;;;;;;;60.42;32.13;;;;;;;8.43;100.00;99575.72;5051148;28;20020;-83
2023/10/26 08:42:38;;;;;;;47.25;32.47;;;;;;;8.48;100.00;99576.16;5032730;28;20024;-83
2023/10/26 08:45:08;;;;;;;93.63;32.92;;;;;;;8.51;100.00;99575.88;5050386;28;20418;-83
2023/10/26 08:47:34;;;;;;;56.28;33.35;;;;;;;8.56;100.00;99580.72;5047882;28;20033;-83
2023/10/26 08:50:06;;;;;;;91.25;33.83;;;;;;;8.53;100.00;99573.97;5049245;28;20104;-83
2023/10/26 08:52:34;;;;;;;145.60;36.15;;;;;;;8.52;100.00;99569.69;5051270;28;20079;-83
2023/10/26 08:54:59;;;;;;;63.45;31.77;;;;;;;8.64;100.00;99565.16;5050581;28;20028;-83
2023/10/26 08:57:25;;;;;;;55.13;32.67;;;;;;;8.71;100.00;99574.16;5033166;28;20112;-83
2023/10/26 08:59:53;;;;;;;44.33;31.50;;;;;;;8.72;100.00;99566.16;5051097;28;20283;-83
2023/10/26 09:02:18;;;;;;;46.42;32.72;;;;;;;8.82;100.00;99566.22;5049091;28;20411;-83
2023/10/26 09:05:08;;;;;;;47.55;32.22;;;;;;;8.93;100.00;99563.47;5050428;28;20036;-82
2023/10/26 09:07:34;;;;;;;46.60;30.83;;;;;;;8.94;100.00;99561.66;5032988;28;20556;-82
2023/10/26 09:10:03;;;;;;;44.42;30.45;;;;;;;8.95;100.00;99566.78;5041874;28;20021;-82
2023/10/26 09:12:34;;;;;;;44.42;31.63;;;;;;;9.09;100.00;99565.56;5049732;28;20032;-82
2023/10/26 09:15:10;;;;;;;43.63;31.77;;;;;;;9.15;100.00;99570.25;5049286;28;20033;-83
2023/10/26 09:17:41;;;;;;;41.45;31.42;;;;;;;9.20;100.00;99568.06;5050059;28;20025;-83
2023/10/26 09:20:22;;;;;;;42.97;32.90;;;;;;;9.27;100.00;99558.69;5050093;28;20028;-83
2023/10/26 09:22:53;;;;;;;45.80;34.00;;;;;;;9.28;100.00;99564.78;5031373;28;20028;-82
2023/10/26 09:25:22;;;;;;;45.28;33.35;;;;;;;9.28;100.00;99560.34;5049410;28;20272;-83
2023/10/26 09:27:47;;;;;;;46.20;34.83;;;;;;;9.32;100.00;99558.28;5032369;28;20025;-83
2023/10/26 09:30:33;;;;;;;48.40;35.15;;;;;;;9.43;100.00;99564.22;5049468;28;20036;-83
2023/10/26 09:33:01;;;;;;;45.75;34.58;;;;;;;9.37;100.00;99562.16;5032178;28;20140;-82
2023/10/26 09:35:31;;;;;;;44.05;32.78;;;;;;;9.37;100.00;99570.03;5050257;28;20356;-82
2023/10/26 09:37:58;;;;;;;44.97;32.75;;;;;;;9.45;100.00;99566.72;5048791;28;20040;-82
2023/10/26 09:40:26;;;;;;;44.58;33.00;;;;;;;9.50;100.00;99558.41;5049058;28;20021;-82
2023/10/26 09:42:52;;;;;;;45.78;33.22;;;;;;;9.55;100.00;99557.03;5049962;28;20588;-82
2023/10/26 09:45:19;;;;;;;42.45;31.50;;;;;;;9.56;100.00;99558.69;5049061;28;20460;-82
2023/10/26 09:47:56;;;;;;;43.22;32.88;;;;;;;9.61;100.00;99560.94;5050487;28;20541;-82
2023/10/26 09:50:21;;;;;;;41.33;31.90;;;;;;;9.64;100.00;99547.50;5050025;28;20078;-82
2023/10/26 09:52:50;;;;;;;44.17;34.03;;;;;;;9.65;100.00;99546.53;5049400;28;20471;-82
2023/10/26 09:55:17;;;;;;;41.28;32.75;;;;;;;9.68;100.00;99543.63;5049379;28;20105;-82
2023/10/26 09:57:50;;;;;;;42.28;32.47;;;;;;;9.74;100.00;99536.03;5048170;28;20044;-82
2023/10/26 10:00:32;;;;;;;39.03;29.83;;;;;;;9.70;100.00;99533.81;5031555;28;20017;-82
2023/10/26 10:03:11;;;;;;;39.38;29.83;;;;;;;9.71;100.00;99538.94;5048836;28;20707;-82
2023/10/26 10:05:41;;;;;;;41.40;31.73;;;;;;;9.68;100.00;99535.75;5048156;28;20071;-82
2023/10/26 10:08:10;;;;;;;37.13;29.85;;;;;;;9.65;100.00;99541.28;5050045;28;20178;-82
2023/10/26 10:10:36;;;;;;;38.95;29.88;;;;;;;9.64;100.00;99529.13;5049241;28;20025;-82
2023/10/26 10:13:05;;;;;;;38.22;30.30;;;;;;;9.63;100.00;99527.47;5028412;28;20029;-83
2023/10/26 10:15:41;;;;;;;37.65;30.40;;;;;;;9.69;100.00;99524.28;5048642;28;20021;-82
2023/10/26 10:18:07;;;;;;;38.38;29.63;;;;;;;9.69;100.00;99534.78;5031675;28;20024;-82
2023/10/26 10:20:43;;;;;;;35.00;29.33;;;;;;;9.70;100.00;99520.69;5031268;28;20108;-82
2023/10/26 10:23:08;;;;;;;35.30;29.17;;;;;;;9.70;100.00;99520.69;5048297;28;20079;-82
2023/10/26 10:25:49;;;;;;;35.58;29.20;;;;;;;9.76;100.00;99512.25;5031537;28;20025;-82
2023/10/26 10:28:21;;;;;;;33.53;28.35;;;;;;;9.69;100.00;99511.16;5049166;28;20057;-82
2023/10/26 10:30:59;;;;;;;32.08;26.95;;;;;;;9.68;100.00;99499.81;5048157;28;20100;-82
2023/10/26 10:33:33;;;;;;;33.08;28.48;;;;;;;9.71;100.00;99502.16;5037626;28;20048;-82
2023/10/26 10:36:09;;;;;;;32.85;28.38;;;;;;;9.69;100.00;99503.28;5053609;28;20025;-82
2023/10/26 10:38:34;;;;;;;33.28;28.45;;;;;;;9.77;100.00;99506.00;5051537;28;20086;-82
2023/10/26 10:41:04;;;;;;;31.42;28.02;;;;;;;9.85;100.00;99514.00;5052947;28;20072;-82
2023/10/26 10:43:46;;;;;;;31.10;26.95;;;;;;;9.89;100.00;99507.50;5053180;28;20031;-81
2023/10/26 10:46:20;;;;;;;30.73;26.55;;;;;;;9.85;100.00;99494.78;5051782;28;20025;-82
2023/10/26 10:49:04;;;;;;;33.45;28.15;;;;;;;9.99;100.00;99497.78;5051282;28;20503;-81
2023/10/26 10:51:57;;;;;;;31.08;25.73;;;;;;;10.08;100.00;99497.94;5052978;28;20110;-81
2023/10/26 10:54:35;;;;;;;29.42;26.23;;;;;;;10.09;100.00;99487.28;5029654;28;20059;-81
2023/10/26 10:57:04;;;;;;;28.20;24.83;;;;;;;10.13;100.00;99487.81;5051729;28;20052;-82
2023/10/26 10:59:36;;;;;;;26.80;23.40;;;;;;;10.29;100.00;99486.25;5052941;28;20104;-82
2023/10/26 11:02:14;;;;;;;25.93;23.20;;;;;;;10.40;100.00;99487.03;5051981;28;20052;-82
2023/10/26 11:04:54;;;;;;;25.38;22.67;;;;;;;10.48;100.00;99487.13;5053173;28;20029;-82
2023/10/26 11:07:26;;;;;;;25.70;23.00;;;;;;;10.50;100.00;99486.03;5037668;28;20040;-82
2023/10/26 11:09:56;;;;;;;25.95;23.25;;;;;;;10.54;100.00;99492.63;5039555;28;20702;-82
2023/10/26 11:12:21;;;;;;;23.90;21.40;;;;;;;10.54;100.00;99482.13;5049134;28;20032;-82
2023/10/26 11:14:51;;;;;;;24.35;21.85;;;;;;;10.45;100.00;99483.00;5033852;28;20390;-82